createdAt,value
2023-04-14T00:01:42.463Z,6.43
2023-04-14T00:04:11.695Z,6.42
2023-04-14T00:06:40.465Z,6.37
2023-04-14T00:09:09.353Z,6.33
2023-04-14T00:11:37.586Z,6.31
2023-04-14T00:14:05.946Z,6.23
2023-04-14T00:16:34.268Z,6.22
2023-04-14T00:19:02.893Z,6.20
2023-04-14T00:21:31.619Z,6.18
2023-04-14T00:23:59.814Z,6.13
2023-04-14T00:26:28.028Z,6.12
2023-04-14T00:28:56.462Z,6.13
2023-04-14T00:31:24.723Z,6.11
2023-04-14T00:33:53.859Z,6.05
2023-04-14T00:36:22.075Z,6.04
2023-04-14T00:38:50.613Z,6.01
2023-04-14T00:41:18.886Z,6.01
2023-04-14T00:43:47.321Z,6.01
2023-04-14T00:46:17.220Z,5.98
2023-04-14T00:48:45.674Z,5.92
2023-04-14T00:51:15.703Z,5.88
2023-04-14T00:53:43.984Z,5.90
2023-04-14T00:56:12.539Z,5.92
2023-04-14T00:58:41.936Z,5.91
2023-04-14T01:01:11.136Z,5.89
2023-04-14T01:03:41.936Z,5.92
2023-04-14T01:06:11.044Z,5.87
2023-04-14T01:08:39.691Z,5.90
2023-04-14T01:11:31.437Z,5.92
2023-04-14T01:14:14.125Z,5.81
2023-04-14T01:16:45.376Z,5.91
2023-04-14T01:19:25.183Z,6.07
2023-04-14T01:22:06.727Z,6.08
2023-04-14T01:24:48.928Z,6.12
2023-04-14T01:28:20.034Z,6.23
2023-04-14T01:31:25.874Z,6.28
2023-04-14T01:34:08.751Z,6.25
2023-04-14T01:36:56.583Z,6.22
2023-04-14T01:39:33.328Z,6.19
2023-04-14T01:42:09.242Z,6.17
2023-04-14T01:44:40.914Z,6.16
2023-04-14T01:47:14.081Z,6.16
2023-04-14T01:49:45.690Z,6.15
2023-04-14T01:52:16.593Z,6.13
2023-04-14T01:54:49.649Z,6.11
2023-04-14T01:57:22.963Z,6.10
2023-04-14T01:59:55.284Z,6.09
2023-04-14T02:02:26.265Z,6.09
2023-04-14T02:04:57.400Z,6.15
2023-04-14T02:07:26.665Z,6.09
2023-04-14T02:09:58.627Z,6.08
2023-04-14T02:12:28.264Z,6.10
2023-04-14T02:14:56.575Z,6.06
2023-04-14T02:17:25.339Z,6.03
2023-04-14T02:19:55.338Z,6.01
2023-04-14T02:22:23.722Z,6.03
2023-04-14T02:24:54.403Z,5.97
2023-04-14T02:27:48.855Z,5.99
2023-04-14T02:30:32.055Z,5.96
2023-04-14T02:33:10.811Z,5.90
2023-04-14T02:35:52.918Z,5.87
2023-04-14T02:38:33.842Z,5.84
2023-04-14T02:41:09.270Z,5.80
2023-04-14T02:44:06.137Z,5.75
2023-04-14T02:46:40.923Z,5.70
2023-04-14T02:49:13.433Z,5.70
2023-04-14T02:51:45.866Z,5.60
2023-04-14T02:54:17.363Z,5.61
2023-04-14T02:56:48.869Z,5.57
2023-04-14T02:59:21.649Z,5.55
2023-04-14T03:02:02.880Z,5.58
2023-04-14T03:04:34.421Z,5.50
2023-04-14T03:07:06.847Z,5.48
2023-04-14T03:09:36.421Z,5.45
2023-04-14T03:12:06.458Z,5.39
2023-04-14T03:14:39.020Z,5.35
2023-04-14T03:17:08.354Z,5.32
2023-04-14T03:19:40.679Z,5.29
2023-04-14T03:22:11.062Z,5.26
2023-04-14T03:24:39.886Z,5.23
2023-04-14T03:27:22.779Z,5.19
2023-04-14T03:29:55.136Z,5.17
2023-04-14T03:32:26.110Z,5.18
2023-04-14T03:34:57.191Z,5.19
2023-04-14T03:37:28.158Z,5.12
2023-04-14T03:40:01.683Z,5.09
2023-04-14T03:42:36.436Z,5.04
2023-04-14T03:45:06.653Z,4.99
2023-04-14T03:47:38.701Z,4.98
2023-04-14T03:50:10.180Z,4.95
2023-04-14T03:52:41.684Z,4.94
2023-04-14T03:55:12.368Z,4.97
2023-04-14T03:57:43.871Z,4.91
2023-04-14T04:00:16.243Z,4.90
2023-04-14T04:02:48.725Z,4.89
2023-04-14T04:05:17.740Z,4.85
2023-04-14T04:07:47.406Z,4.85
2023-04-14T04:10:16.577Z,4.78
2023-04-14T04:12:47.848Z,4.79
2023-04-14T04:15:17.760Z,4.77
2023-04-14T04:17:48.889Z,4.73
2023-04-14T04:20:19.428Z,4.71
2023-04-14T04:22:52.508Z,4.72
2023-04-14T04:25:21.427Z,4.69
2023-04-14T04:28:02.316Z,4.66
2023-04-14T04:30:33.351Z,4.64
2023-04-14T04:33:04.063Z,4.63
2023-04-14T04:35:33.516Z,4.62
2023-04-14T04:38:01.966Z,4.57
2023-04-14T04:40:38.420Z,4.58
2023-04-14T04:43:12.584Z,4.62
2023-04-14T04:46:20.377Z,4.68
2023-04-14T04:48:53.125Z,4.67
2023-04-14T04:51:21.462Z,4.66
2023-04-14T04:53:49.748Z,4.66
2023-04-14T04:56:18.014Z,4.64
2023-04-14T04:58:46.915Z,4.63
2023-04-14T05:01:16.973Z,4.64
2023-04-14T05:03:46.220Z,4.63
2023-04-14T05:06:16.521Z,4.62
2023-04-14T05:08:45.112Z,4.64
2023-04-14T05:11:13.353Z,4.65
2023-04-14T05:13:45.591Z,4.64
2023-04-14T05:16:14.974Z,4.68
2023-04-14T05:18:43.781Z,4.71
2023-04-14T05:21:13.587Z,4.77
2023-04-14T05:23:44.909Z,4.81
2023-04-14T05:28:44.719Z,4.89
2023-04-14T05:31:13.029Z,4.95
2023-04-14T05:33:41.432Z,4.99
2023-04-14T05:36:09.716Z,5.02
2023-04-14T05:38:41.958Z,5.08
2023-04-14T05:41:12.010Z,5.11
2023-04-14T05:43:40.367Z,5.17
2023-04-14T05:46:08.872Z,5.22
2023-04-14T05:48:38.103Z,5.30
2023-04-14T05:51:06.432Z,5.37
2023-04-14T05:53:34.678Z,5.44
2023-04-14T05:56:03.086Z,5.50
2023-04-14T05:58:31.249Z,5.59
2023-04-14T06:01:00.683Z,5.65
2023-04-14T06:03:30.333Z,5.73
2023-04-14T06:05:59.366Z,5.85
2023-04-14T06:08:28.047Z,5.93
2023-04-14T06:10:56.253Z,6.01
2023-04-14T06:13:24.620Z,6.10
2023-04-14T06:15:52.884Z,6.20
2023-04-14T06:18:21.306Z,6.31
2023-04-14T06:20:49.854Z,6.38
2023-04-14T06:23:17.812Z,6.46
2023-04-14T06:25:46.225Z,6.53
2023-04-14T06:28:14.909Z,6.62
2023-04-14T06:30:43.373Z,6.70
2023-04-14T06:33:11.704Z,6.83
2023-04-14T06:35:40.096Z,6.95
2023-04-14T06:38:08.357Z,7.06
2023-04-14T06:40:36.623Z,7.21
2023-04-14T06:43:06.364Z,7.32
2023-04-14T06:45:34.656Z,7.44
2023-04-14T06:48:03.080Z,7.58
2023-04-14T06:50:31.402Z,7.67
2023-04-14T06:52:59.630Z,7.79
2023-04-14T06:55:27.994Z,7.98
2023-04-14T06:57:56.343Z,8.12
2023-04-14T07:00:24.720Z,8.30
2023-04-14T07:02:56.906Z,8.37
2023-04-14T07:05:36.354Z,8.48
2023-04-14T07:08:32.999Z,8.67
2023-04-14T07:11:08.872Z,8.80
2023-04-14T07:13:47.461Z,9.00
2023-04-14T07:16:15.885Z,9.19
2023-04-14T07:18:45.762Z,9.32
2023-04-14T07:21:14.422Z,9.44
2023-04-14T07:23:47.690Z,9.57
2023-04-14T07:26:16.217Z,9.68
2023-04-14T07:28:44.410Z,9.80
2023-04-14T07:31:13.191Z,9.89
2023-04-14T07:33:42.784Z,9.97
2023-04-14T07:36:11.079Z,10.12
2023-04-14T07:38:39.304Z,10.28
2023-04-14T07:41:08.324Z,10.36
2023-04-14T07:43:36.959Z,10.44
2023-04-14T07:46:07.503Z,10.58
2023-04-14T07:48:37.784Z,10.70
2023-04-14T07:51:07.083Z,10.88
2023-04-14T07:53:40.291Z,10.97
2023-04-14T07:56:08.909Z,11.16
2023-04-14T07:58:37.390Z,11.27
2023-04-14T08:01:06.382Z,11.40
2023-04-14T08:03:37.320Z,11.47
2023-04-14T08:06:08.938Z,11.63
2023-04-14T08:08:39.961Z,11.80
2023-04-14T08:11:09.456Z,11.97
2023-04-14T08:13:43.082Z,12.19
2023-04-14T08:16:11.456Z,12.36
2023-04-14T08:18:41.575Z,12.54
2023-04-14T08:21:10.229Z,12.68
2023-04-14T08:23:38.714Z,12.86
2023-04-14T08:26:07.349Z,13.09
2023-04-14T08:28:35.629Z,13.31
2023-04-14T08:31:29.697Z,13.57
2023-04-14T08:34:00.480Z,13.81
2023-04-14T08:36:31.347Z,13.92
2023-04-14T08:39:01.283Z,14.12
2023-04-14T08:41:34.389Z,14.27
2023-04-14T08:44:02.932Z,14.48
2023-04-14T08:46:31.884Z,14.82
2023-04-14T08:49:07.056Z,14.94
2023-04-14T08:51:38.874Z,15.18
2023-04-14T08:54:10.675Z,15.40
2023-04-14T08:56:43.277Z,15.41
2023-04-14T08:59:12.539Z,15.48
2023-04-14T09:01:41.159Z,15.62
2023-04-14T09:04:10.285Z,16.07
2023-04-14T09:06:38.846Z,16.28
2023-04-14T09:09:07.688Z,16.51
2023-04-14T09:11:36.099Z,16.65
2023-04-14T09:14:04.974Z,16.92
2023-04-14T09:16:33.761Z,17.06
2023-04-14T09:19:06.764Z,17.40
2023-04-14T09:21:51.673Z,17.48
2023-04-14T09:24:33.965Z,17.22
2023-04-14T09:27:05.750Z,17.25
2023-04-14T09:29:36.400Z,17.48
2023-04-14T09:32:06.710Z,17.53
2023-04-14T09:34:35.199Z,17.64
2023-04-14T09:37:09.841Z,18.13
2023-04-14T09:39:54.145Z,18.27
2023-04-14T09:42:41.409Z,18.42
2023-04-14T09:45:10.174Z,18.51
2023-04-14T09:47:38.160Z,18.52
2023-04-14T09:50:07.385Z,18.70
2023-04-14T09:52:48.372Z,18.93
2023-04-14T09:55:17.335Z,19.54
2023-04-14T09:57:47.642Z,19.95
2023-04-14T10:00:16.392Z,20.59
2023-04-14T10:02:56.414Z,21.05
2023-04-14T10:05:31.244Z,21.63
2023-04-14T10:08:20.225Z,22.21
2023-04-14T10:10:48.594Z,23.22
2023-04-14T10:13:19.288Z,23.43
2023-04-14T10:15:47.583Z,23.59
2023-04-14T10:18:16.029Z,23.39
2023-04-14T10:20:44.303Z,23.12
2023-04-14T10:23:13.614Z,23.76
2023-04-14T10:25:41.805Z,23.98
2023-04-14T10:28:10.373Z,24.03
2023-04-14T10:30:43.204Z,24.64
2023-04-14T10:33:15.165Z,25.82
2023-04-14T10:35:56.429Z,26.72
2023-04-14T10:38:42.302Z,27.42
2023-04-14T10:41:48.135Z,28.06
2023-04-14T10:44:32.764Z,28.67
2023-04-14T10:47:05.501Z,29.01
2023-04-14T10:49:41.647Z,29.64
2023-04-14T10:52:15.638Z,30.15
2023-04-14T10:55:08.169Z,30.53
2023-04-14T10:57:45.432Z,30.37
2023-04-14T11:00:31.930Z,31.56
2023-04-14T11:03:16.352Z,31.83
2023-04-14T11:05:49.755Z,31.49
2023-04-14T11:08:34.787Z,31.39
2023-04-14T11:11:08.277Z,31.60
2023-04-14T11:13:38.678Z,30.63
2023-04-14T11:16:08.110Z,30.48
2023-04-14T11:18:46.077Z,30.96
2023-04-14T11:21:17.302Z,31.17
2023-04-14T11:23:46.704Z,30.78
2023-04-14T11:26:14.896Z,30.68
2023-04-14T11:28:46.040Z,31.70
2023-04-14T11:31:17.303Z,31.70
2023-04-14T11:33:46.936Z,29.60
2023-04-14T11:36:15.600Z,30.89
2023-04-14T11:38:45.740Z,30.24
2023-04-14T11:41:16.345Z,29.48
2023-04-14T11:43:50.688Z,29.92
2023-04-14T11:46:24.925Z,29.98
2023-04-14T11:48:57.971Z,31.10
2023-04-14T11:51:32.321Z,30.28
2023-04-14T11:54:01.357Z,30.25
2023-04-14T11:56:31.828Z,30.81
2023-04-14T11:59:02.300Z,-149.27
2023-04-14T12:01:31.197Z,-149.27
2023-04-14T12:04:04.285Z,28.66
2023-04-14T12:06:57.290Z,28.69
2023-04-14T12:09:31.475Z,29.05
2023-04-14T12:11:59.921Z,-149.27
2023-04-14T12:14:28.243Z,-149.27
2023-04-14T12:16:56.669Z,-149.27
2023-04-14T12:19:24.987Z,-149.27
2023-04-14T12:21:53.408Z,-149.27
2023-04-14T12:24:21.806Z,-149.27
2023-04-14T12:26:50.521Z,-149.27
2023-04-14T12:29:20.426Z,-149.27
2023-04-14T12:31:48.575Z,-149.27
2023-04-14T12:34:19.617Z,-149.27
2023-04-14T12:36:52.341Z,-149.27
2023-04-14T12:39:23.922Z,-149.27
2023-04-14T12:41:52.233Z,-149.27
2023-04-14T12:44:21.504Z,-149.27
2023-04-14T12:46:52.608Z,29.05
2023-04-14T12:49:38.668Z,33.93
2023-04-14T12:52:08.291Z,34.54
2023-04-14T12:54:52.120Z,-149.27
2023-04-14T12:57:22.231Z,-149.27
2023-04-14T12:59:50.794Z,-149.27
2023-04-14T13:02:19.360Z,-149.27
2023-04-14T13:04:47.465Z,-149.27
2023-04-14T13:07:15.944Z,-149.27
2023-04-14T13:09:44.228Z,34.54
2023-04-14T13:12:12.694Z,36.45
2023-04-14T13:14:47.999Z,37.40
2023-04-14T13:17:16.577Z,37.97
2023-04-14T13:19:44.879Z,38.42
2023-04-14T13:22:14.207Z,38.18
2023-04-14T13:24:42.231Z,38.09
2023-04-14T13:27:11.525Z,38.61
2023-04-14T13:29:41.169Z,38.52
2023-04-14T13:32:12.719Z,38.02
2023-04-14T13:34:41.777Z,38.07
2023-04-14T13:37:16.893Z,38.67
2023-04-14T13:39:45.253Z,38.68
2023-04-14T13:42:14.986Z,38.68
2023-04-14T13:44:43.833Z,39.04
2023-04-14T13:47:12.817Z,38.45
2023-04-14T13:49:42.708Z,38.45
2023-04-14T13:52:10.704Z,35.37
2023-04-14T13:54:39.058Z,35.69
2023-04-14T13:57:08.058Z,37.11
2023-04-14T13:59:36.147Z,37.93
2023-04-14T14:02:04.772Z,-149.27
2023-04-14T14:04:36.917Z,-149.27
2023-04-14T14:07:05.742Z,-149.27
2023-04-14T14:09:34.722Z,-149.27
2023-04-14T14:12:03.108Z,-149.27
2023-04-14T14:14:31.387Z,-149.27
2023-04-14T14:16:59.321Z,-149.27
2023-04-14T14:19:27.727Z,-149.27
2023-04-14T14:22:03.031Z,-149.27
2023-04-14T14:24:31.545Z,-149.27
2023-04-14T14:27:02.190Z,-149.27
2023-04-14T14:29:30.558Z,-149.27
2023-04-14T14:31:59.554Z,-149.27
2023-04-14T14:34:28.277Z,-149.27
2023-04-14T14:36:57.512Z,-149.27
2023-04-14T14:39:27.096Z,-149.27
2023-04-14T14:41:55.452Z,-149.27
2023-04-14T14:44:23.917Z,-149.27
2023-04-14T14:46:52.791Z,-149.27
2023-04-14T14:49:21.512Z,-149.27
2023-04-14T14:51:49.723Z,-149.27
2023-04-14T14:54:17.984Z,-149.27
2023-04-14T14:56:47.390Z,-149.27
2023-04-14T14:59:16.309Z,-149.27
2023-04-14T15:01:46.384Z,-149.27
2023-04-14T15:04:14.513Z,-149.27
2023-04-14T15:06:43.078Z,-149.27
2023-04-14T15:09:11.365Z,-149.27
2023-04-14T15:11:40.066Z,-149.27
2023-04-14T15:14:09.188Z,-149.27
2023-04-14T15:16:37.279Z,-149.27
2023-04-14T15:19:05.646Z,-149.27
2023-04-14T15:21:34.186Z,-149.27
2023-04-14T15:24:02.675Z,-149.27
2023-04-14T15:26:31.105Z,-149.27
2023-04-14T15:29:01.301Z,-149.27
2023-04-14T15:31:29.656Z,-149.27
2023-04-14T15:34:23.383Z,-149.27
2023-04-14T15:36:51.734Z,-149.27
2023-04-14T15:39:19.951Z,-149.27
2023-04-14T15:41:50.273Z,-149.27
2023-04-14T15:44:43.538Z,-149.27
2023-04-14T15:47:12.247Z,-149.27
2023-04-14T15:49:40.855Z,-149.27
2023-04-14T15:52:10.857Z,-149.27
2023-04-14T15:54:39.689Z,-149.27
2023-04-14T15:57:08.165Z,-149.27
2023-04-14T15:59:37.497Z,-149.27
2023-04-14T16:02:05.610Z,-149.27
2023-04-14T16:04:34.217Z,-149.27
2023-04-14T16:07:02.718Z,-149.27
2023-04-14T16:09:31.286Z,-149.27
2023-04-14T16:11:59.178Z,-149.27
2023-04-14T16:14:32.380Z,-149.27
2023-04-14T16:17:00.880Z,-149.27
2023-04-14T16:19:29.042Z,-149.27
2023-04-14T16:21:57.094Z,-149.27
2023-04-14T16:24:25.432Z,-149.27
2023-04-14T16:26:53.836Z,-149.27
2023-04-14T16:29:22.134Z,-149.27
2023-04-14T16:31:50.863Z,-149.27
2023-04-14T16:34:20.307Z,-149.27
2023-04-14T16:36:48.701Z,-149.27
2023-04-14T16:39:17.072Z,-149.27
2023-04-14T16:41:48.472Z,-149.27
2023-04-14T16:44:17.601Z,-149.27
2023-04-14T16:46:45.666Z,-149.27
2023-04-14T16:49:14.564Z,-149.27
2023-04-14T16:51:43.594Z,-149.27
2023-04-14T16:54:11.713Z,-149.27
2023-04-14T16:56:39.738Z,-149.27
2023-04-14T16:59:08.908Z,-149.27
2023-04-14T17:01:37.352Z,-149.27
2023-04-14T17:04:06.375Z,-149.27
2023-04-14T17:06:34.884Z,-149.27
2023-04-14T17:09:03.761Z,-149.27
2023-04-14T17:11:32.037Z,-149.27
2023-04-14T17:14:01.270Z,-149.27
2023-04-14T17:16:30.340Z,-149.27
2023-04-14T17:18:58.528Z,-149.27
2023-04-14T17:21:26.921Z,-149.27
2023-04-14T17:23:55.446Z,-149.27
2023-04-14T17:26:24.645Z,-149.27
2023-04-14T17:28:52.576Z,-149.27
2023-04-14T17:31:21.133Z,-149.27
2023-04-14T17:33:50.179Z,-149.27
2023-04-14T17:36:18.476Z,-149.27
2023-04-14T17:38:46.959Z,-149.27
2023-04-14T17:41:15.414Z,-149.27
2023-04-14T17:43:43.741Z,-149.27
2023-04-14T17:46:17.540Z,-149.27
2023-04-14T17:48:54.799Z,-149.27
2023-04-14T17:51:27.454Z,-149.27
2023-04-14T17:53:58.347Z,-149.27
2023-04-14T17:56:26.925Z,-149.27
2023-04-14T17:58:55.603Z,-149.27
2023-04-14T18:01:24.495Z,23.48
2023-04-14T18:03:53.163Z,23.21
2023-04-14T18:06:22.802Z,22.76
2023-04-14T18:08:51.753Z,22.42
2023-04-14T18:11:22.113Z,22.12
2023-04-14T18:13:50.640Z,21.84
2023-04-14T18:16:20.139Z,21.58
2023-04-14T18:18:48.461Z,21.29
2023-04-14T18:21:16.870Z,21.01
2023-04-14T18:23:45.244Z,20.76
2023-04-14T18:28:44.567Z,20.18
2023-04-14T18:31:13.925Z,19.83
2023-04-14T18:33:42.506Z,19.55
2023-04-14T18:36:10.840Z,19.32
2023-04-14T18:38:40.122Z,19.09
2023-04-14T18:41:08.782Z,18.93
2023-04-14T18:43:37.260Z,18.71
2023-04-14T18:46:05.741Z,18.53
2023-04-14T18:48:34.043Z,18.29
2023-04-14T18:51:06.784Z,18.08
2023-04-14T18:53:35.932Z,17.94
2023-04-14T18:56:05.053Z,17.73
2023-04-14T18:58:34.517Z,17.53
2023-04-14T19:01:03.740Z,17.37
2023-04-14T19:03:32.045Z,17.18
2023-04-14T19:06:00.486Z,17.02
2023-04-14T19:08:28.826Z,16.85
2023-04-14T19:10:59.177Z,16.68
2023-04-14T19:13:27.575Z,16.52
2023-04-14T19:16:13.672Z,16.36
2023-04-14T19:18:42.448Z,16.19
2023-04-14T19:21:10.680Z,16.06
2023-04-14T19:23:40.853Z,15.92
2023-04-14T19:26:11.362Z,15.81
2023-04-14T19:28:40.298Z,15.71
2023-04-14T19:31:08.863Z,15.56
2023-04-14T19:33:37.676Z,15.42
2023-04-14T19:36:17.195Z,15.26
2023-04-14T19:38:45.694Z,15.14
2023-04-14T19:41:14.634Z,15.03
2023-04-14T19:43:45.638Z,14.88
2023-04-14T19:46:16.772Z,14.82
2023-04-14T19:48:45.276Z,14.67
2023-04-14T19:51:13.927Z,14.52
2023-04-14T19:53:43.413Z,14.43
2023-04-14T19:56:12.713Z,14.35
2023-04-14T19:58:41.212Z,14.23
2023-04-14T20:01:09.770Z,14.08
2023-04-14T20:03:38.213Z,14.01
2023-04-14T20:06:27.074Z,13.93
2023-04-14T20:08:55.670Z,13.83
2023-04-14T20:11:27.804Z,13.66
2023-04-14T20:13:56.197Z,13.57
2023-04-14T20:16:24.791Z,13.49
2023-04-14T20:18:53.172Z,13.41
2023-04-14T20:21:21.670Z,13.32
2023-04-14T20:23:49.932Z,13.27
2023-04-14T20:26:18.184Z,13.19
2023-04-14T20:28:47.669Z,13.11
2023-04-14T20:31:16.089Z,12.97
2023-04-14T20:33:45.755Z,12.90
2023-04-14T20:36:14.162Z,12.90
2023-04-14T20:38:42.761Z,12.76
2023-04-14T20:41:11.191Z,12.69
2023-04-14T20:43:39.565Z,12.65
2023-04-14T20:46:07.862Z,12.58
2023-04-14T20:48:36.253Z,12.53
2023-04-14T20:51:04.501Z,12.53
2023-04-14T20:53:32.897Z,12.53
2023-04-14T20:56:01.180Z,12.44
2023-04-14T20:58:29.695Z,12.44
2023-04-14T21:00:58.178Z,12.34
2023-04-14T21:03:28.526Z,12.32
2023-04-14T21:05:56.833Z,12.25
2023-04-14T21:08:25.304Z,12.20
2023-04-14T21:11:14.296Z,12.14
2023-04-14T21:15:27.858Z,12.07
2023-04-14T21:16:30.577Z,11.97
2023-04-14T21:18:58.882Z,12.00
2023-04-14T21:21:27.991Z,11.91
2023-04-14T21:23:56.645Z,11.92
2023-04-14T21:26:25.005Z,11.87
2023-04-14T21:28:53.329Z,11.83
2023-04-14T21:31:21.544Z,11.79
2023-04-14T21:33:50.432Z,11.78
2023-04-14T21:36:19.652Z,11.73
2023-04-14T21:38:48.030Z,11.70
2023-04-14T21:41:16.569Z,11.68
2023-04-14T21:43:45.037Z,11.61
2023-04-14T21:46:13.740Z,11.56
2023-04-14T21:48:42.521Z,11.50
2023-04-14T21:51:11.813Z,11.49
2023-04-14T21:53:40.278Z,11.42
2023-04-14T21:56:09.773Z,11.39
2023-04-14T21:58:40.161Z,11.35
2023-04-14T22:01:10.202Z,11.32
2023-04-14T22:03:42.223Z,11.33
2023-04-14T22:06:11.304Z,11.32
2023-04-14T22:08:40.621Z,11.29
2023-04-14T22:11:09.090Z,11.25
2023-04-14T22:13:37.458Z,11.21
2023-04-14T22:16:06.366Z,11.15
2023-04-14T22:18:35.900Z,11.12
2023-04-14T22:21:05.249Z,11.11
2023-04-14T22:23:33.531Z,11.10
2023-04-14T22:26:01.993Z,11.14
2023-04-14T22:28:30.496Z,11.14
2023-04-14T22:30:59.365Z,11.09
2023-04-14T22:33:27.674Z,11.05
2023-04-14T22:35:56.231Z,10.95
2023-04-14T22:38:24.512Z,10.91
2023-04-14T22:40:52.958Z,10.92
2023-04-14T22:43:21.297Z,10.90
2023-04-14T22:45:49.643Z,10.86
2023-04-14T22:48:17.996Z,10.75
2023-04-14T22:50:46.333Z,10.68
2023-04-14T22:53:14.600Z,10.62
2023-04-14T22:55:43.936Z,10.64
2023-04-14T22:58:16.667Z,10.63
2023-04-14T23:00:48.306Z,10.58
2023-04-14T23:03:17.092Z,10.54
2023-04-14T23:05:45.674Z,10.47
2023-04-14T23:08:13.926Z,10.52
2023-04-14T23:10:42.469Z,10.41
2023-04-14T23:13:10.749Z,10.34
2023-04-14T23:15:39.130Z,10.30
2023-04-14T23:18:07.516Z,10.25
2023-04-14T23:20:36.829Z,10.20
2023-04-14T23:23:05.932Z,10.14
2023-04-14T23:25:35.299Z,10.11
2023-04-14T23:28:03.712Z,10.09
2023-04-14T23:30:32.565Z,10.01
2023-04-14T23:33:01.020Z,9.92
2023-04-14T23:35:29.560Z,9.92
2023-04-14T23:38:02.127Z,9.88
2023-04-14T23:40:35.497Z,9.83
2023-04-14T23:43:03.913Z,9.82
2023-04-14T23:45:36.942Z,9.75
2023-04-14T23:48:06.516Z,9.69
2023-04-14T23:51:01.533Z,9.67
2023-04-14T23:53:24.395Z,9.63
2023-04-14T23:55:52.913Z,9.60
2023-04-14T23:58:26.554Z,9.53
